Decoded Metar for KXNA (BENTONVILLE (NW) in AR, USA) (IATA:XNA) | Meteo·Mobile Aviation Weather
aviador You're here:

KXNA Decoded Metar

BENTONVILLE (NW) in AR, USA
Report Time2018-12-15 13:11:00
UTC Time2018-12-15 13:37:18
Flight Rules mvfr MVFR
Wind360° at 10 kt
W.Decomp.*RWY 35: 9.9 kt HW 1.0 kt RCW
RWY 34: 9.6 kt HW 2.8 kt RCW
Visibility9999 m
Phenomena:N/A
Clouds:Broken 011 Hf
Broken 075 Hf
Expected CloudBase > 1,200 ft AGL from Temp-Dew spread
Ceiling1,100 ft
Temp01°C (ISA -11)
Dew Point-2°C (81% RH)
AAT-4.8°C
QNH1019 hPa
Density Alt-233 ft
Elevation1,286 ft
Report Wrong Elevation
Raw Report
KXNA 151311Z 36010KT 10SM BKN011 BKN075 01/M02 A3008 RMK AO2
T00061022=

Extra information for KXNA:More info

Metar Taf Metar & Taf Last 4 Metars F.Rules Stats Wind Profile Meteogram Temp Stats Airport Information Weather charts Add Link Nearby VenuesMetar ALERT Operation Metar Decoded Social comments

AIRNAV info for KXNA